sensor_id;sensor_type;location;lat;lon;timestamp;P1;durP1;ratioP1;P2;durP2;ratioP2
45368;SDS011;51342;55.250;37.668;2022-08-19T00:04:15;8.18;;;5.57;;
45368;SDS011;51342;55.250;37.668;2022-08-19T00:06:48;7.57;;;5.57;;
45368;SDS011;51342;55.250;37.668;2022-08-19T00:09:21;9.75;;;6.30;;
45368;SDS011;51342;55.250;37.668;2022-08-19T00:11:54;7.10;;;6.32;;
45368;SDS011;51342;55.250;37.668;2022-08-19T00:14:26;9.88;;;6.50;;
45368;SDS011;51342;55.250;37.668;2022-08-19T00:17:01;10.20;;;7.43;;
45368;SDS011;51342;55.250;37.668;2022-08-19T00:19:34;11.48;;;7.20;;
45368;SDS011;51342;55.250;37.668;2022-08-19T00:22:07;8.40;;;7.13;;
45368;SDS011;51342;55.250;37.668;2022-08-19T00:24:39;11.20;;;8.00;;
45368;SDS011;51342;55.250;37.668;2022-08-19T00:27:12;9.52;;;7.53;;
45368;SDS011;51342;55.250;37.668;2022-08-19T00:29:44;11.27;;;8.20;;
45368;SDS011;51342;55.250;37.668;2022-08-19T00:32:15;11.77;;;8.02;;
45368;SDS011;51342;55.250;37.668;2022-08-19T00:34:47;11.32;;;7.75;;
45368;SDS011;51342;55.250;37.668;2022-08-19T00:37:20;10.95;;;8.35;;
45368;SDS011;51342;55.250;37.668;2022-08-19T00:39:57;12.73;;;8.13;;
45368;SDS011;51342;55.250;37.668;2022-08-19T00:42:29;12.02;;;7.95;;
45368;SDS011;51342;55.250;37.668;2022-08-19T00:45:00;12.88;;;8.30;;
45368;SDS011;51342;55.250;37.668;2022-08-19T00:47:32;10.95;;;8.20;;
45368;SDS011;51342;55.250;37.668;2022-08-19T00:50:04;12.30;;;8.73;;
45368;SDS011;51342;55.250;37.668;2022-08-19T00:52:37;11.23;;;8.63;;
45368;SDS011;51342;55.250;37.668;2022-08-19T00:55:15;12.57;;;8.50;;
45368;SDS011;51342;55.250;37.668;2022-08-19T00:57:55;10.82;;;9.15;;
45368;SDS011;51342;55.250;37.668;2022-08-19T01:00:29;15.98;;;9.77;;
45368;SDS011;51342;55.250;37.668;2022-08-19T01:03:03;12.23;;;8.82;;
45368;SDS011;51342;55.250;37.668;2022-08-19T01:05:45;11.13;;;8.90;;
45368;SDS011;51342;55.250;37.668;2022-08-19T01:08:17;10.57;;;9.25;;
45368;SDS011;51342;55.250;37.668;2022-08-19T01:10:55;12.73;;;9.15;;
45368;SDS011;51342;55.250;37.668;2022-08-19T01:13:30;11.02;;;8.88;;
45368;SDS011;51342;55.250;37.668;2022-08-19T01:16:05;12.13;;;9.20;;
45368;SDS011;51342;55.250;37.668;2022-08-19T01:18:41;12.48;;;9.75;;
45368;SDS011;51342;55.250;37.668;2022-08-19T01:23:58;14.48;;;9.80;;
45368;SDS011;51342;55.250;37.668;2022-08-19T01:26:29;13.20;;;9.73;;
45368;SDS011;51342;55.250;37.668;2022-08-19T01:29:01;12.23;;;9.48;;
45368;SDS011;51342;55.250;37.668;2022-08-19T01:31:33;11.63;;;9.00;;
45368;SDS011;51342;55.250;37.668;2022-08-19T01:34:06;14.82;;;9.70;;
45368;SDS011;51342;55.250;37.668;2022-08-19T01:36:39;15.68;;;10.15;;
45368;SDS011;51342;55.250;37.668;2022-08-19T01:39:16;13.65;;;9.68;;
45368;SDS011;51342;55.250;37.668;2022-08-19T01:41:50;12.10;;;9.43;;
45368;SDS011;51342;55.250;37.668;2022-08-19T01:44:25;13.77;;;9.68;;
45368;SDS011;51342;55.250;37.668;2022-08-19T01:46:56;13.65;;;9.85;;
45368;SDS011;51342;55.250;37.668;2022-08-19T01:49:28;13.95;;;9.82;;
45368;SDS011;51342;55.250;37.668;2022-08-19T01:52:00;12.75;;;9.18;;
45368;SDS011;51342;55.250;37.668;2022-08-19T01:54:32;14.23;;;10.20;;
45368;SDS011;51342;55.250;37.668;2022-08-19T01:57:05;13.93;;;9.10;;
45368;SDS011;51342;55.250;37.668;2022-08-19T01:59:40;12.88;;;8.68;;
45368;SDS011;51342;55.250;37.668;2022-08-19T02:02:14;12.98;;;9.07;;
45368;SDS011;51342;55.250;37.668;2022-08-19T02:04:45;14.18;;;8.63;;
45368;SDS011;51342;55.250;37.668;2022-08-19T02:07:20;13.07;;;7.72;;
45368;SDS011;51342;55.250;37.668;2022-08-19T02:09:52;10.85;;;8.02;;
45368;SDS011;51342;55.250;37.668;2022-08-19T02:12:24;11.32;;;8.00;;
45368;SDS011;51342;55.250;37.668;2022-08-19T02:14:55;9.82;;;7.55;;
45368;SDS011;51342;55.250;37.668;2022-08-19T02:17:27;13.50;;;7.40;;
45368;SDS011;51342;55.250;37.668;2022-08-19T02:19:59;9.65;;;7.05;;
45368;SDS011;51342;55.250;37.668;2022-08-19T02:22:31;9.52;;;6.90;;
45368;SDS011;51342;55.250;37.668;2022-08-19T02:25:06;8.00;;;6.78;;
45368;SDS011;51342;55.250;37.668;2022-08-19T02:27:38;9.48;;;7.20;;
45368;SDS011;51342;55.250;37.668;2022-08-19T02:30:12;10.20;;;7.53;;
45368;SDS011;51342;55.250;37.668;2022-08-19T02:32:47;8.95;;;6.47;;
45368;SDS011;51342;55.250;37.668;2022-08-19T02:35:18;8.63;;;6.75;;
45368;SDS011;51342;55.250;37.668;2022-08-19T02:37:50;8.65;;;6.47;;
45368;SDS011;51342;55.250;37.668;2022-08-19T02:40:40;9.50;;;6.05;;
45368;SDS011;51342;55.250;37.668;2022-08-19T02:43:20;9.52;;;6.20;;
45368;SDS011;51342;55.250;37.668;2022-08-19T02:45:53;8.90;;;5.82;;
45368;SDS011;51342;55.250;37.668;2022-08-19T02:48:25;7.97;;;5.53;;
45368;SDS011;51342;55.250;37.668;2022-08-19T02:50:57;8.48;;;5.90;;
45368;SDS011;51342;55.250;37.668;2022-08-19T02:53:29;7.18;;;5.20;;
45368;SDS011;51342;55.250;37.668;2022-08-19T02:56:00;8.70;;;5.47;;
45368;SDS011;51342;55.250;37.668;2022-08-19T02:58:32;7.43;;;5.40;;
45368;SDS011;51342;55.250;37.668;2022-08-19T03:01:03;6.95;;;5.32;;
45368;SDS011;51342;55.250;37.668;2022-08-19T03:03:35;5.85;;;4.78;;
45368;SDS011;51342;55.250;37.668;2022-08-19T03:06:11;6.95;;;5.32;;
45368;SDS011;51342;55.250;37.668;2022-08-19T03:11:21;7.63;;;5.30;;
45368;SDS011;51342;55.250;37.668;2022-08-19T03:13:57;8.48;;;5.13;;
45368;SDS011;51342;55.250;37.668;2022-08-19T03:16:30;6.93;;;5.20;;
45368;SDS011;51342;55.250;37.668;2022-08-19T03:19:03;7.75;;;5.40;;
45368;SDS011;51342;55.250;37.668;2022-08-19T03:21:35;7.78;;;5.10;;
45368;SDS011;51342;55.250;37.668;2022-08-19T03:24:07;8.02;;;4.80;;
45368;SDS011;51342;55.250;37.668;2022-08-19T03:26:40;7.40;;;4.85;;
45368;SDS011;51342;55.250;37.668;2022-08-19T03:29:14;7.45;;;4.97;;
45368;SDS011;51342;55.250;37.668;2022-08-19T03:31:46;7.78;;;4.57;;
45368;SDS011;51342;55.250;37.668;2022-08-19T03:34:22;6.05;;;4.43;;
45368;SDS011;51342;55.250;37.668;2022-08-19T03:37:01;6.32;;;4.53;;
45368;SDS011;51342;55.250;37.668;2022-08-19T03:39:36;6.65;;;5.28;;
45368;SDS011;51342;55.250;37.668;2022-08-19T03:42:09;7.80;;;4.70;;
45368;SDS011;51342;55.250;37.668;2022-08-19T03:44:42;4.80;;;4.28;;
45368;SDS011;51342;55.250;37.668;2022-08-19T03:47:15;6.95;;;4.20;;
45368;SDS011;51342;55.250;37.668;2022-08-19T03:49:47;5.95;;;4.13;;
45368;SDS011;51342;55.250;37.668;2022-08-19T03:52:19;5.60;;;3.72;;
45368;SDS011;51342;55.250;37.668;2022-08-19T03:54:51;5.47;;;4.05;;
45368;SDS011;51342;55.250;37.668;2022-08-19T03:57:22;9.68;;;4.40;;
45368;SDS011;51342;55.250;37.668;2022-08-19T03:59:54;7.95;;;4.40;;
45368;SDS011;51342;55.250;37.668;2022-08-19T04:02:25;6.95;;;4.22;;
45368;SDS011;51342;55.250;37.668;2022-08-19T04:04:57;5.43;;;3.70;;
45368;SDS011;51342;55.250;37.668;2022-08-19T04:07:28;5.63;;;3.75;;
45368;SDS011;51342;55.250;37.668;2022-08-19T04:10:00;6.15;;;4.07;;
45368;SDS011;51342;55.250;37.668;2022-08-19T04:12:31;8.70;;;3.80;;
45368;SDS011;51342;55.250;37.668;2022-08-19T04:15:03;7.07;;;4.05;;
45368;SDS011;51342;55.250;37.668;2022-08-19T04:17:36;5.47;;;3.97;;
45368;SDS011;51342;55.250;37.668;2022-08-19T04:20:08;5.82;;;3.45;;
45368;SDS011;51342;55.250;37.668;2022-08-19T04:22:40;5.60;;;3.53;;
45368;SDS011;51342;55.250;37.668;2022-08-19T04:25:12;4.95;;;3.42;;
45368;SDS011;51342;55.250;37.668;2022-08-19T04:27:44;6.10;;;3.58;;
45368;SDS011;51342;55.250;37.668;2022-08-19T04:30:20;5.70;;;3.45;;
45368;SDS011;51342;55.250;37.668;2022-08-19T04:32:53;4.97;;;3.60;;
45368;SDS011;51342;55.250;37.668;2022-08-19T04:35:25;9.27;;;3.47;;
45368;SDS011;51342;55.250;37.668;2022-08-19T04:37:56;7.93;;;3.90;;
45368;SDS011;51342;55.250;37.668;2022-08-19T04:40:27;6.50;;;3.70;;
45368;SDS011;51342;55.250;37.668;2022-08-19T04:43:17;6.38;;;3.60;;
45368;SDS011;51342;55.250;37.668;2022-08-19T04:45:49;7.28;;;3.88;;
45368;SDS011;51342;55.250;37.668;2022-08-19T04:48:22;5.75;;;3.60;;
45368;SDS011;51342;55.250;37.668;2022-08-19T04:50:58;6.07;;;3.65;;
45368;SDS011;51342;55.250;37.668;2022-08-19T04:53:31;8.15;;;3.55;;
45368;SDS011;51342;55.250;37.668;2022-08-19T04:56:11;5.47;;;3.30;;
45368;SDS011;51342;55.250;37.668;2022-08-19T04:58:48;9.13;;;3.60;;
45368;SDS011;51342;55.250;37.668;2022-08-19T05:01:26;7.88;;;3.30;;
45368;SDS011;51342;55.250;37.668;2022-08-19T05:04:04;7.30;;;3.97;;
45368;SDS011;51342;55.250;37.668;2022-08-19T05:06:37;7.10;;;3.70;;
45368;SDS011;51342;55.250;37.668;2022-08-19T05:09:10;6.63;;;3.78;;
45368;SDS011;51342;55.250;37.668;2022-08-19T05:11:41;5.03;;;3.88;;
45368;SDS011;51342;55.250;37.668;2022-08-19T05:14:13;6.50;;;4.05;;
45368;SDS011;51342;55.250;37.668;2022-08-19T05:16:45;7.57;;;4.13;;
45368;SDS011;51342;55.250;37.668;2022-08-19T05:19:16;8.27;;;4.88;;
45368;SDS011;51342;55.250;37.668;2022-08-19T05:22:06;7.35;;;4.63;;
45368;SDS011;51342;55.250;37.668;2022-08-19T05:24:57;9.88;;;5.45;;
45368;SDS011;51342;55.250;37.668;2022-08-19T05:27:31;10.20;;;5.82;;
45368;SDS011;51342;55.250;37.668;2022-08-19T05:30:04;7.45;;;5.03;;
45368;SDS011;51342;55.250;37.668;2022-08-19T05:32:37;10.38;;;5.78;;
45368;SDS011;51342;55.250;37.668;2022-08-19T05:35:10;8.35;;;5.10;;
45368;SDS011;51342;55.250;37.668;2022-08-19T05:37:42;8.88;;;5.13;;
45368;SDS011;51342;55.250;37.668;2022-08-19T05:40:14;7.82;;;5.15;;
45368;SDS011;51342;55.250;37.668;2022-08-19T05:42:45;11.75;;;5.38;;
45368;SDS011;51342;55.250;37.668;2022-08-19T05:45:17;8.02;;;5.03;;
45368;SDS011;51342;55.250;37.668;2022-08-19T05:47:49;10.73;;;4.85;;
45368;SDS011;51342;55.250;37.668;2022-08-19T05:50:21;9.25;;;4.47;;
45368;SDS011;51342;55.250;37.668;2022-08-19T05:52:53;10.57;;;4.65;;
45368;SDS011;51342;55.250;37.668;2022-08-19T05:55:24;5.63;;;4.68;;
45368;SDS011;51342;55.250;37.668;2022-08-19T05:57:56;7.47;;;4.40;;
45368;SDS011;51342;55.250;37.668;2022-08-19T06:00:28;7.47;;;4.20;;
45368;SDS011;51342;55.250;37.668;2022-08-19T06:03:01;10.13;;;4.43;;
45368;SDS011;51342;55.250;37.668;2022-08-19T06:05:34;7.10;;;4.53;;
45368;SDS011;51342;55.250;37.668;2022-08-19T06:08:05;5.82;;;4.25;;
45368;SDS011;51342;55.250;37.668;2022-08-19T06:10:38;8.18;;;3.97;;
45368;SDS011;51342;55.250;37.668;2022-08-19T06:13:09;5.47;;;4.22;;
45368;SDS011;51342;55.250;37.668;2022-08-19T06:15:41;9.07;;;5.57;;
45368;SDS011;51342;55.250;37.668;2022-08-19T06:18:15;8.90;;;4.82;;
45368;SDS011;51342;55.250;37.668;2022-08-19T06:20:47;6.93;;;4.20;;
45368;SDS011;51342;55.250;37.668;2022-08-19T06:23:20;8.93;;;4.30;;
45368;SDS011;51342;55.250;37.668;2022-08-19T06:25:52;8.40;;;3.83;;
45368;SDS011;51342;55.250;37.668;2022-08-19T06:28:26;5.70;;;4.13;;
45368;SDS011;51342;55.250;37.668;2022-08-19T06:30:57;9.52;;;6.30;;
45368;SDS011;51342;55.250;37.668;2022-08-19T06:33:29;7.50;;;5.78;;
45368;SDS011;51342;55.250;37.668;2022-08-19T06:36:00;7.18;;;4.05;;
45368;SDS011;51342;55.250;37.668;2022-08-19T06:38:32;9.25;;;4.50;;
45368;SDS011;51342;55.250;37.668;2022-08-19T06:41:07;6.40;;;4.40;;
45368;SDS011;51342;55.250;37.668;2022-08-19T06:43:39;5.65;;;4.00;;
45368;SDS011;51342;55.250;37.668;2022-08-19T06:46:13;5.55;;;3.80;;
45368;SDS011;51342;55.250;37.668;2022-08-19T06:48:46;6.30;;;4.68;;
45368;SDS011;51342;55.250;37.668;2022-08-19T06:51:17;6.85;;;3.90;;
45368;SDS011;51342;55.250;37.668;2022-08-19T06:53:53;7.10;;;4.97;;
45368;SDS011;51342;55.250;37.668;2022-08-19T06:56:26;5.72;;;4.20;;
45368;SDS011;51342;55.250;37.668;2022-08-19T06:59:09;5.80;;;3.90;;
45368;SDS011;51342;55.250;37.668;2022-08-19T07:01:50;4.95;;;3.58;;
45368;SDS011;51342;55.250;37.668;2022-08-19T07:04:25;5.82;;;4.03;;
45368;SDS011;51342;55.250;37.668;2022-08-19T07:07:09;6.40;;;4.75;;
45368;SDS011;51342;55.250;37.668;2022-08-19T07:09:43;9.85;;;3.78;;
45368;SDS011;51342;55.250;37.668;2022-08-19T07:12:15;6.22;;;3.67;;
45368;SDS011;51342;55.250;37.668;2022-08-19T07:14:47;8.90;;;4.78;;
45368;SDS011;51342;55.250;37.668;2022-08-19T07:17:20;6.93;;;3.83;;
45368;SDS011;51342;55.250;37.668;2022-08-19T07:19:51;8.45;;;3.95;;
45368;SDS011;51342;55.250;37.668;2022-08-19T07:22:23;6.45;;;4.13;;
45368;SDS011;51342;55.250;37.668;2022-08-19T07:24:55;7.85;;;4.13;;
45368;SDS011;51342;55.250;37.668;2022-08-19T07:27:27;8.40;;;3.60;;
45368;SDS011;51342;55.250;37.668;2022-08-19T07:29:58;5.45;;;3.95;;
45368;SDS011;51342;55.250;37.668;2022-08-19T07:32:31;9.00;;;4.47;;
45368;SDS011;51342;55.250;37.668;2022-08-19T07:35:02;6.43;;;4.20;;
45368;SDS011;51342;55.250;37.668;2022-08-19T07:37:35;7.25;;;3.78;;
45368;SDS011;51342;55.250;37.668;2022-08-19T07:40:08;8.30;;;4.15;;
45368;SDS011;51342;55.250;37.668;2022-08-19T07:42:40;7.85;;;3.65;;
45368;SDS011;51342;55.250;37.668;2022-08-19T07:45:13;6.05;;;4.57;;
45368;SDS011;51342;55.250;37.668;2022-08-19T07:47:46;6.10;;;3.97;;
45368;SDS011;51342;55.250;37.668;2022-08-19T07:50:18;5.65;;;3.90;;
45368;SDS011;51342;55.250;37.668;2022-08-19T07:52:51;7.05;;;3.85;;
45368;SDS011;51342;55.250;37.668;2022-08-19T07:55:23;7.13;;;4.45;;
45368;SDS011;51342;55.250;37.668;2022-08-19T07:57:56;6.43;;;5.13;;
45368;SDS011;51342;55.250;37.668;2022-08-19T08:00:28;8.43;;;6.18;;
45368;SDS011;51342;55.250;37.668;2022-08-19T08:02:59;6.32;;;5.47;;
45368;SDS011;51342;55.250;37.668;2022-08-19T08:05:31;6.97;;;5.70;;
45368;SDS011;51342;55.250;37.668;2022-08-19T08:08:21;5.57;;;4.57;;
45368;SDS011;51342;55.250;37.668;2022-08-19T08:11:11;11.45;;;4.25;;
45368;SDS011;51342;55.250;37.668;2022-08-19T08:13:44;7.45;;;4.22;;
45368;SDS011;51342;55.250;37.668;2022-08-19T08:16:15;7.50;;;4.15;;
45368;SDS011;51342;55.250;37.668;2022-08-19T08:18:47;7.10;;;4.15;;
45368;SDS011;51342;55.250;37.668;2022-08-19T08:21:18;8.30;;;3.58;;
45368;SDS011;51342;55.250;37.668;2022-08-19T08:23:50;7.18;;;3.60;;
45368;SDS011;51342;55.250;37.668;2022-08-19T08:26:26;6.50;;;3.37;;
45368;SDS011;51342;55.250;37.668;2022-08-19T08:28:57;7.25;;;4.32;;
45368;SDS011;51342;55.250;37.668;2022-08-19T08:31:29;6.30;;;3.72;;
45368;SDS011;51342;55.250;37.668;2022-08-19T08:34:01;7.00;;;4.43;;
45368;SDS011;51342;55.250;37.668;2022-08-19T08:36:35;7.43;;;4.50;;
45368;SDS011;51342;55.250;37.668;2022-08-19T08:39:16;5.65;;;4.10;;
45368;SDS011;51342;55.250;37.668;2022-08-19T08:47:47;6.90;;;3.55;;
45368;SDS011;51342;55.250;37.668;2022-08-19T08:50:40;5.57;;;4.38;;
45368;SDS011;51342;55.250;37.668;2022-08-19T08:53:16;6.47;;;3.72;;
45368;SDS011;51342;55.250;37.668;2022-08-19T08:55:49;7.55;;;3.95;;
45368;SDS011;51342;55.250;37.668;2022-08-19T08:58:24;6.85;;;3.38;;
45368;SDS011;51342;55.250;37.668;2022-08-19T09:01:02;4.38;;;3.35;;
45368;SDS011;51342;55.250;37.668;2022-08-19T09:03:34;5.32;;;3.10;;
45368;SDS011;51342;55.250;37.668;2022-08-19T09:14:38;8.57;;;3.03;;
45368;SDS011;51342;55.250;37.668;2022-08-19T09:17:17;6.63;;;3.88;;
45368;SDS011;51342;55.250;37.668;2022-08-19T09:22:51;6.45;;;4.53;;
45368;SDS011;51342;55.250;37.668;2022-08-19T09:25:22;14.65;;;12.07;;
45368;SDS011;51342;55.250;37.668;2022-08-19T09:27:54;16.77;;;15.05;;
45368;SDS011;51342;55.250;37.668;2022-08-19T09:30:28;11.40;;;8.98;;
45368;SDS011;51342;55.250;37.668;2022-08-19T09:33:03;10.80;;;9.50;;
45368;SDS011;51342;55.250;37.668;2022-08-19T09:35:35;6.65;;;6.05;;
45368;SDS011;51342;55.250;37.668;2022-08-19T09:38:09;6.97;;;4.60;;
45368;SDS011;51342;55.250;37.668;2022-08-19T09:40:40;7.53;;;4.38;;
45368;SDS011;51342;55.250;37.668;2022-08-19T09:43:12;16.58;;;10.35;;
45368;SDS011;51342;55.250;37.668;2022-08-19T09:45:43;6.60;;;5.32;;
45368;SDS011;51342;55.250;37.668;2022-08-19T09:48:21;7.78;;;6.72;;
45368;SDS011;51342;55.250;37.668;2022-08-19T09:50:52;15.27;;;7.13;;
45368;SDS011;51342;55.250;37.668;2022-08-19T09:53:24;6.53;;;5.78;;
45368;SDS011;51342;55.250;37.668;2022-08-19T09:55:55;8.07;;;4.32;;
45368;SDS011;51342;55.250;37.668;2022-08-19T09:58:27;7.28;;;3.35;;
45368;SDS011;51342;55.250;37.668;2022-08-19T10:01:00;4.70;;;2.80;;
45368;SDS011;51342;55.250;37.668;2022-08-19T10:03:33;8.10;;;3.38;;
45368;SDS011;51342;55.250;37.668;2022-08-19T10:06:06;5.97;;;3.35;;
45368;SDS011;51342;55.250;37.668;2022-08-19T10:08:39;7.53;;;3.42;;
45368;SDS011;51342;55.250;37.668;2022-08-19T10:11:12;6.55;;;3.08;;
45368;SDS011;51342;55.250;37.668;2022-08-19T10:13:47;9.40;;;2.90;;
45368;SDS011;51342;55.250;37.668;2022-08-19T10:16:20;5.40;;;2.95;;
45368;SDS011;51342;55.250;37.668;2022-08-19T10:18:53;6.93;;;3.00;;
45368;SDS011;51342;55.250;37.668;2022-08-19T10:21:27;10.13;;;3.60;;
45368;SDS011;51342;55.250;37.668;2022-08-19T10:24:00;6.50;;;2.63;;
45368;SDS011;51342;55.250;37.668;2022-08-19T10:26:36;6.10;;;3.42;;
45368;SDS011;51342;55.250;37.668;2022-08-19T10:29:12;4.43;;;3.10;;
45368;SDS011;51342;55.250;37.668;2022-08-19T10:31:46;7.72;;;2.97;;
45368;SDS011;51342;55.250;37.668;2022-08-19T10:34:18;4.43;;;2.95;;
45368;SDS011;51342;55.250;37.668;2022-08-19T10:36:50;7.30;;;3.40;;
45368;SDS011;51342;55.250;37.668;2022-08-19T10:39:22;7.45;;;3.40;;
45368;SDS011;51342;55.250;37.668;2022-08-19T10:41:53;5.05;;;3.00;;
45368;SDS011;51342;55.250;37.668;2022-08-19T10:44:27;6.25;;;3.33;;
45368;SDS011;51342;55.250;37.668;2022-08-19T10:47:01;7.20;;;2.97;;
45368;SDS011;51342;55.250;37.668;2022-08-19T10:49:33;4.95;;;2.70;;
45368;SDS011;51342;55.250;37.668;2022-08-19T10:52:24;4.60;;;2.78;;
45368;SDS011;51342;55.250;37.668;2022-08-19T10:55:06;3.80;;;2.80;;
45368;SDS011;51342;55.250;37.668;2022-08-19T10:57:56;4.38;;;3.00;;
45368;SDS011;51342;55.250;37.668;2022-08-19T11:00:27;4.78;;;2.55;;
45368;SDS011;51342;55.250;37.668;2022-08-19T11:03:01;4.38;;;2.70;;
45368;SDS011;51342;55.250;37.668;2022-08-19T11:05:33;13.68;;;3.80;;
45368;SDS011;51342;55.250;37.668;2022-08-19T11:08:04;5.88;;;2.78;;
45368;SDS011;51342;55.250;37.668;2022-08-19T11:10:41;6.20;;;2.60;;
45368;SDS011;51342;55.250;37.668;2022-08-19T11:13:13;7.88;;;2.95;;
45368;SDS011;51342;55.250;37.668;2022-08-19T11:15:45;6.07;;;3.03;;
45368;SDS011;51342;55.250;37.668;2022-08-19T11:18:18;11.20;;;3.38;;
45368;SDS011;51342;55.250;37.668;2022-08-19T11:20:49;9.43;;;4.20;;
45368;SDS011;51342;55.250;37.668;2022-08-19T11:23:21;5.70;;;2.78;;
45368;SDS011;51342;55.250;37.668;2022-08-19T11:25:52;22.15;;;16.20;;
45368;SDS011;51342;55.250;37.668;2022-08-19T11:28:24;20.70;;;11.02;;
45368;SDS011;51342;55.250;37.668;2022-08-19T11:30:55;21.08;;;11.68;;
45368;SDS011;51342;55.250;37.668;2022-08-19T11:33:27;69.32;;;31.63;;
45368;SDS011;51342;55.250;37.668;2022-08-19T11:35:58;100.07;;;47.50;;
45368;SDS011;51342;55.250;37.668;2022-08-19T11:38:31;62.78;;;34.13;;
45368;SDS011;51342;55.250;37.668;2022-08-19T11:41:04;46.35;;;28.00;;
45368;SDS011;51342;55.250;37.668;2022-08-19T11:43:38;18.25;;;13.07;;
45368;SDS011;51342;55.250;37.668;2022-08-19T11:46:12;66.18;;;44.28;;
45368;SDS011;51342;55.250;37.668;2022-08-19T11:48:46;26.13;;;19.50;;
45368;SDS011;51342;55.250;37.668;2022-08-19T11:51:20;19.20;;;11.98;;
45368;SDS011;51342;55.250;37.668;2022-08-19T11:53:55;34.72;;;18.92;;
45368;SDS011;51342;55.250;37.668;2022-08-19T11:56:28;8.63;;;4.95;;
45368;SDS011;51342;55.250;37.668;2022-08-19T11:59:00;9.25;;;5.40;;
45368;SDS011;51342;55.250;37.668;2022-08-19T12:01:32;6.22;;;5.10;;
45368;SDS011;51342;55.250;37.668;2022-08-19T12:04:03;8.45;;;5.13;;
45368;SDS011;51342;55.250;37.668;2022-08-19T12:06:37;11.23;;;5.55;;
45368;SDS011;51342;55.250;37.668;2022-08-19T12:09:10;8.27;;;5.50;;
45368;SDS011;51342;55.250;37.668;2022-08-19T12:11:45;12.60;;;6.88;;
45368;SDS011;51342;55.250;37.668;2022-08-19T12:14:16;11.63;;;5.18;;
45368;SDS011;51342;55.250;37.668;2022-08-19T12:16:48;7.72;;;5.10;;
45368;SDS011;51342;55.250;37.668;2022-08-19T12:19:22;10.90;;;5.88;;
45368;SDS011;51342;55.250;37.668;2022-08-19T12:21:58;8.68;;;5.68;;
45368;SDS011;51342;55.250;37.668;2022-08-19T12:24:32;12.23;;;8.38;;
45368;SDS011;51342;55.250;37.668;2022-08-19T12:27:05;9.80;;;7.03;;
45368;SDS011;51342;55.250;37.668;2022-08-19T12:29:36;11.30;;;9.55;;
45368;SDS011;51342;55.250;37.668;2022-08-19T12:32:08;17.83;;;15.93;;
45368;SDS011;51342;55.250;37.668;2022-08-19T12:34:39;15.50;;;12.38;;
45368;SDS011;51342;55.250;37.668;2022-08-19T12:37:11;9.88;;;7.47;;
45368;SDS011;51342;55.250;37.668;2022-08-19T12:39:43;10.90;;;6.90;;
45368;SDS011;51342;55.250;37.668;2022-08-19T12:42:14;11.27;;;8.75;;
45368;SDS011;51342;55.250;37.668;2022-08-19T12:44:48;11.38;;;9.68;;
45368;SDS011;51342;55.250;37.668;2022-08-19T12:47:20;18.65;;;10.55;;
45368;SDS011;51342;55.250;37.668;2022-08-19T12:49:52;16.52;;;12.02;;
45368;SDS011;51342;55.250;37.668;2022-08-19T12:52:24;13.27;;;10.98;;
45368;SDS011;51342;55.250;37.668;2022-08-19T12:54:57;14.88;;;12.40;;
45368;SDS011;51342;55.250;37.668;2022-08-19T12:57:29;15.18;;;13.57;;
45368;SDS011;51342;55.250;37.668;2022-08-19T13:02:47;16.98;;;14.10;;
45368;SDS011;51342;55.250;37.668;2022-08-19T13:05:22;15.20;;;13.48;;
45368;SDS011;51342;55.250;37.668;2022-08-19T13:07:57;19.83;;;14.13;;
45368;SDS011;51342;55.250;37.668;2022-08-19T13:10:32;18.88;;;13.80;;
45368;SDS011;51342;55.250;37.668;2022-08-19T13:15:41;19.40;;;15.75;;
45368;SDS011;51342;55.250;37.668;2022-08-19T13:18:13;20.50;;;15.90;;
45368;SDS011;51342;55.250;37.668;2022-08-19T13:20:45;18.02;;;15.63;;
45368;SDS011;51342;55.250;37.668;2022-08-19T13:23:16;20.98;;;15.43;;
45368;SDS011;51342;55.250;37.668;2022-08-19T13:26:02;17.67;;;15.77;;
45368;SDS011;51342;55.250;37.668;2022-08-19T13:28:35;19.10;;;16.15;;
45368;SDS011;51342;55.250;37.668;2022-08-19T13:31:26;21.77;;;16.85;;
45368;SDS011;51342;55.250;37.668;2022-08-19T13:34:19;21.42;;;17.95;;
45368;SDS011;51342;55.250;37.668;2022-08-19T13:37:00;22.02;;;17.95;;
45368;SDS011;51342;55.250;37.668;2022-08-19T13:39:36;20.80;;;18.52;;
45368;SDS011;51342;55.250;37.668;2022-08-19T13:42:07;21.60;;;18.42;;
45368;SDS011;51342;55.250;37.668;2022-08-19T13:44:41;22.67;;;20.15;;
45368;SDS011;51342;55.250;37.668;2022-08-19T13:47:12;26.23;;;23.27;;
45368;SDS011;51342;55.250;37.668;2022-08-19T13:49:45;30.45;;;23.23;;
45368;SDS011;51342;55.250;37.668;2022-08-19T13:52:17;26.75;;;24.05;;
45368;SDS011;51342;55.250;37.668;2022-08-19T13:54:48;26.52;;;23.27;;
45368;SDS011;51342;55.250;37.668;2022-08-19T13:57:20;26.40;;;23.58;;
45368;SDS011;51342;55.250;37.668;2022-08-19T13:59:51;29.38;;;23.90;;
45368;SDS011;51342;55.250;37.668;2022-08-19T14:02:23;27.40;;;22.75;;
45368;SDS011;51342;55.250;37.668;2022-08-19T14:04:55;27.60;;;22.40;;
45368;SDS011;51342;55.250;37.668;2022-08-19T14:07:27;26.77;;;22.00;;
45368;SDS011;51342;55.250;37.668;2022-08-19T14:10:01;26.83;;;22.40;;
45368;SDS011;51342;55.250;37.668;2022-08-19T14:12:33;24.75;;;22.20;;
45368;SDS011;51342;55.250;37.668;2022-08-19T14:15:05;26.42;;;22.55;;
45368;SDS011;51342;55.250;37.668;2022-08-19T14:17:39;24.80;;;22.20;;
45368;SDS011;51342;55.250;37.668;2022-08-19T14:20:12;24.38;;;21.60;;
45368;SDS011;51342;55.250;37.668;2022-08-19T14:22:47;24.65;;;21.10;;
45368;SDS011;51342;55.250;37.668;2022-08-19T14:25:20;25.23;;;20.33;;
45368;SDS011;51342;55.250;37.668;2022-08-19T14:27:54;23.38;;;20.02;;
45368;SDS011;51342;55.250;37.668;2022-08-19T14:30:31;23.60;;;19.48;;
45368;SDS011;51342;55.250;37.668;2022-08-19T14:33:03;20.35;;;18.25;;
45368;SDS011;51342;55.250;37.668;2022-08-19T14:35:36;24.05;;;18.75;;
45368;SDS011;51342;55.250;37.668;2022-08-19T14:38:12;23.52;;;17.25;;
45368;SDS011;51342;55.250;37.668;2022-08-19T14:40:47;19.42;;;16.65;;
45368;SDS011;51342;55.250;37.668;2022-08-19T14:43:19;18.67;;;15.32;;
45368;SDS011;51342;55.250;37.668;2022-08-19T14:45:52;18.08;;;12.95;;
45368;SDS011;51342;55.250;37.668;2022-08-19T14:48:24;16.45;;;11.77;;
45368;SDS011;51342;55.250;37.668;2022-08-19T14:50:56;14.77;;;11.00;;
45368;SDS011;51342;55.250;37.668;2022-08-19T14:53:28;14.40;;;10.65;;
45368;SDS011;51342;55.250;37.668;2022-08-19T14:56:00;14.60;;;10.02;;
45368;SDS011;51342;55.250;37.668;2022-08-19T14:58:32;15.77;;;11.10;;
45368;SDS011;51342;55.250;37.668;2022-08-19T15:01:03;14.25;;;10.45;;
45368;SDS011;51342;55.250;37.668;2022-08-19T15:03:36;13.13;;;10.57;;
45368;SDS011;51342;55.250;37.668;2022-08-19T15:06:08;13.57;;;10.65;;
45368;SDS011;51342;55.250;37.668;2022-08-19T15:08:40;16.27;;;10.18;;
45368;SDS011;51342;55.250;37.668;2022-08-19T15:11:16;32.63;;;28.42;;
45368;SDS011;51342;55.250;37.668;2022-08-19T15:16:24;16.05;;;10.38;;
45368;SDS011;51342;55.250;37.668;2022-08-19T15:18:56;15.77;;;10.10;;
45368;SDS011;51342;55.250;37.668;2022-08-19T15:21:30;12.25;;;10.63;;
45368;SDS011;51342;55.250;37.668;2022-08-19T15:24:02;16.17;;;12.48;;
45368;SDS011;51342;55.250;37.668;2022-08-19T15:26:35;17.05;;;14.68;;
45368;SDS011;51342;55.250;37.668;2022-08-19T15:29:07;11.90;;;10.70;;
45368;SDS011;51342;55.250;37.668;2022-08-19T15:31:39;12.60;;;8.50;;
45368;SDS011;51342;55.250;37.668;2022-08-19T15:34:10;13.45;;;7.00;;
45368;SDS011;51342;55.250;37.668;2022-08-19T15:36:42;12.07;;;8.70;;